createdAt,value
2017-12-09T00:01:19.921Z,-1.00
2017-12-09T00:03:47.338Z,-1.00
2017-12-09T00:06:15.521Z,-1.00
2017-12-09T00:08:43.694Z,-1.10
2017-12-09T00:11:11.100Z,-1.10
2017-12-09T00:13:38.529Z,-1.10
2017-12-09T00:16:05.938Z,-1.00
2017-12-09T00:18:34.109Z,-1.00
2017-12-09T00:21:01.529Z,-1.10
2017-12-09T00:23:28.933Z,-1.10
2017-12-09T00:25:57.121Z,-1.00
2017-12-09T00:28:24.529Z,-1.00
2017-12-09T00:30:51.941Z,-1.00
2017-12-09T00:33:19.406Z,-1.00
2017-12-09T00:35:46.821Z,-1.00
2017-12-09T00:38:14.988Z,-1.00
2017-12-09T00:40:42.401Z,-1.10
2017-12-09T00:43:09.816Z,-1.10
2017-12-09T00:45:38.001Z,-1.10
2017-12-09T00:48:05.416Z,-1.10
2017-12-09T00:50:32.825Z,-1.10
2017-12-09T00:53:00.229Z,-1.10
2017-12-09T00:55:27.652Z,-1.10
2017-12-09T00:57:55.066Z,-1.20
2017-12-09T01:00:23.245Z,-1.20
2017-12-09T01:02:51.424Z,-1.30
2017-12-09T01:05:19.623Z,-1.30
2017-12-09T01:07:47.041Z,-1.30
2017-12-09T01:10:15.222Z,-1.30
2017-12-09T01:12:43.417Z,-1.30
2017-12-09T01:15:10.822Z,-1.30
2017-12-09T01:17:50.161Z,-1.30
2017-12-09T01:20:17.561Z,-1.30
2017-12-09T01:22:44.976Z,-1.30
2017-12-09T01:25:12.391Z,-1.30
2017-12-09T01:27:39.804Z,-1.30
2017-12-09T01:30:07.980Z,-1.30
2017-12-09T01:32:36.168Z,-1.30
2017-12-09T01:35:04.335Z,-1.40
2017-12-09T01:37:32.542Z,-1.40
2017-12-09T01:40:00.003Z,-1.40
2017-12-09T01:42:27.400Z,-1.40
2017-12-09T01:44:54.813Z,-1.40
2017-12-09T01:47:22.218Z,-1.40
2017-12-09T01:49:50.408Z,-1.40
2017-12-09T01:52:18.581Z,-1.40
2017-12-09T01:54:46.760Z,-1.40
2017-12-09T01:57:14.165Z,-1.40
2017-12-09T01:59:41.581Z,-1.40
2017-12-09T02:02:08.977Z,-1.40
2017-12-09T02:04:36.393Z,-1.40
2017-12-09T02:07:03.796Z,-1.30
2017-12-09T02:09:31.209Z,-1.30
2017-12-09T02:11:58.628Z,-1.30
2017-12-09T02:14:26.033Z,-1.20
2017-12-09T02:16:53.445Z,-1.10
2017-12-09T02:19:21.629Z,-1.00
2017-12-09T02:21:49.809Z,-1.10
2017-12-09T02:24:17.981Z,-1.10
2017-12-09T02:26:45.397Z,-1.10
2017-12-09T02:29:12.810Z,-1.10
2017-12-09T02:31:40.217Z,-1.10
2017-12-09T02:34:07.625Z,-1.00
2017-12-09T02:36:35.041Z,-0.90
2017-12-09T02:39:02.445Z,-1.00
2017-12-09T02:41:29.866Z,-1.00
2017-12-09T02:43:58.033Z,-1.10
2017-12-09T02:46:26.221Z,-1.10
2017-12-09T02:48:53.632Z,-1.10
2017-12-09T02:51:21.040Z,-1.10
2017-12-09T02:53:48.487Z,-1.10
2017-12-09T02:56:16.674Z,-1.10
2017-12-09T02:58:45.653Z,-1.00
2017-12-09T03:01:13.824Z,-1.00
2017-12-09T03:03:42.005Z,-1.00
2017-12-09T03:06:10.173Z,-1.00
2017-12-09T03:08:38.362Z,-1.00
2017-12-09T03:11:05.775Z,-1.00
2017-12-09T03:13:33.186Z,-1.00
2017-12-09T03:16:00.592Z,-0.90
2017-12-09T03:18:28.013Z,-0.80
2017-12-09T03:20:55.425Z,-0.90
2017-12-09T03:23:23.604Z,-0.90
2017-12-09T03:25:51.773Z,-0.90
2017-12-09T03:28:19.957Z,-0.90
2017-12-09T03:30:47.541Z,-1.00
2017-12-09T03:33:14.941Z,-0.90
2017-12-09T03:35:42.353Z,-0.80
2017-12-09T03:38:09.794Z,-0.80
2017-12-09T03:40:37.193Z,-0.80
2017-12-09T03:43:04.601Z,-0.70
2017-12-09T03:45:32.017Z,-0.70
2017-12-09T03:47:59.427Z,-0.70
2017-12-09T03:50:26.849Z,-0.70
2017-12-09T03:52:55.016Z,-0.50
2017-12-09T03:55:23.197Z,-0.70
2017-12-09T03:57:51.712Z,-0.60
2017-12-09T04:00:19.129Z,-0.70
2017-12-09T04:02:46.528Z,-0.80
2017-12-09T04:05:13.941Z,-0.90
2017-12-09T04:07:42.122Z,-0.80
2017-12-09T04:10:10.300Z,-0.90
2017-12-09T04:12:38.477Z,-0.90
2017-12-09T04:15:05.892Z,-0.90
2017-12-09T04:17:33.296Z,-0.90
2017-12-09T04:20:00.734Z,-0.90
2017-12-09T04:22:28.949Z,-0.90
2017-12-09T04:24:56.325Z,-0.90
2017-12-09T04:27:23.741Z,-0.90
2017-12-09T04:29:51.151Z,-1.00
2017-12-09T04:32:18.566Z,-1.00
2017-12-09T04:34:45.969Z,-1.10
2017-12-09T04:37:13.382Z,-1.00
2017-12-09T04:39:40.790Z,-1.00
2017-12-09T04:42:08.211Z,-1.10
2017-12-09T04:44:35.629Z,-1.10
2017-12-09T04:47:03.044Z,-1.20
2017-12-09T04:49:30.458Z,-1.30
2017-12-09T04:51:57.880Z,-1.30
2017-12-09T04:54:26.056Z,-1.20
2017-12-09T04:56:54.237Z,-1.40
2017-12-09T04:59:22.405Z,-1.30
2017-12-09T05:01:50.585Z,-1.30
2017-12-09T05:04:17.996Z,-1.30
2017-12-09T05:06:45.400Z,-1.30
2017-12-09T05:09:12.814Z,-1.20
2017-12-09T05:11:40.219Z,-1.20
2017-12-09T05:14:07.632Z,-1.30
2017-12-09T05:16:35.040Z,-1.40
2017-12-09T05:19:02.453Z,-1.40
2017-12-09T05:21:30.637Z,-1.50
2017-12-09T05:23:58.820Z,-1.50
2017-12-09T05:26:27.001Z,-1.50
2017-12-09T05:28:54.422Z,-1.50
2017-12-09T05:31:21.829Z,-1.50
2017-12-09T05:33:49.245Z,-1.60
2017-12-09T05:36:17.417Z,-1.70
2017-12-09T05:38:44.825Z,-1.70
2017-12-09T05:41:12.252Z,-1.80
2017-12-09T05:43:39.657Z,-1.80
2017-12-09T05:46:07.073Z,-1.90
2017-12-09T05:48:34.485Z,-1.90
2017-12-09T05:51:01.889Z,-1.90
2017-12-09T05:53:29.292Z,-1.90
2017-12-09T05:55:56.714Z,-1.90
2017-12-09T05:58:24.125Z,-2.00
2017-12-09T06:00:51.529Z,-2.00
2017-12-09T06:03:18.960Z,-2.00
2017-12-09T06:05:47.132Z,-2.10
2017-12-09T06:08:14.540Z,-2.10
2017-12-09T06:10:41.952Z,-2.10
2017-12-09T06:13:09.371Z,-2.10
2017-12-09T06:15:36.778Z,-2.20
2017-12-09T06:18:04.196Z,-2.20
2017-12-09T06:20:32.385Z,-2.20
2017-12-09T06:22:59.796Z,-2.20
2017-12-09T06:25:27.220Z,-2.20
2017-12-09T06:27:54.624Z,-2.10
2017-12-09T06:30:22.032Z,-2.10
2017-12-09T06:32:49.445Z,-2.10
2017-12-09T06:35:17.617Z,-2.10
2017-12-09T06:37:45.796Z,-2.00
2017-12-09T06:40:13.977Z,-2.10
2017-12-09T06:42:42.156Z,-2.10
2017-12-09T06:45:09.561Z,-2.10
2017-12-09T06:47:37.110Z,-2.10
2017-12-09T06:50:04.509Z,-2.10
2017-12-09T06:52:32.693Z,-2.10
2017-12-09T06:55:00.873Z,-2.10
2017-12-09T06:57:28.280Z,-2.10
2017-12-09T06:59:55.708Z,-2.00
2017-12-09T07:02:23.110Z,-2.00
2017-12-09T07:04:50.513Z,-2.00
2017-12-09T07:07:17.945Z,-2.00
2017-12-09T07:09:46.119Z,-1.90
2017-12-09T07:12:14.289Z,-1.90
2017-12-09T07:14:42.468Z,-2.00
2017-12-09T07:17:10.692Z,-2.00
2017-12-09T07:19:38.061Z,-2.10
2017-12-09T07:22:05.474Z,-2.10
2017-12-09T07:24:32.877Z,-2.10
2017-12-09T07:27:00.284Z,-2.10
2017-12-09T07:29:27.701Z,-2.00
2017-12-09T07:31:55.117Z,-2.10
2017-12-09T07:34:22.537Z,-2.00
2017-12-09T07:36:49.953Z,-2.00
2017-12-09T07:39:17.368Z,-1.90
2017-12-09T07:41:44.764Z,-2.00
2017-12-09T07:44:12.190Z,-1.90
2017-12-09T07:46:39.588Z,-1.90
2017-12-09T07:49:07.016Z,-1.80
2017-12-09T07:51:34.433Z,-1.70
2017-12-09T07:54:01.852Z,-1.60
2017-12-09T07:56:29.262Z,-1.60
2017-12-09T07:58:56.659Z,-1.50
2017-12-09T08:01:24.085Z,-1.70
2017-12-09T08:03:51.489Z,-1.70
2017-12-09T08:06:19.673Z,-1.40
2017-12-09T08:08:47.840Z,-1.30
2017-12-09T08:11:16.049Z,-1.10
2017-12-09T08:13:44.205Z,-1.20
2017-12-09T08:16:11.620Z,-1.20
2017-12-09T08:18:39.029Z,-1.00
2017-12-09T08:21:06.451Z,-0.70
2017-12-09T08:23:34.068Z,-0.40
2017-12-09T08:26:01.449Z,-0.20
2017-12-09T08:28:28.856Z,0.20
2017-12-09T08:30:56.261Z,0.40
2017-12-09T08:33:23.664Z,0.90
2017-12-09T08:35:51.073Z,1.30
2017-12-09T08:38:18.484Z,1.60
2017-12-09T08:40:45.881Z,1.30
2017-12-09T08:43:13.294Z,0.80
2017-12-09T08:45:40.699Z,0.50
2017-12-09T08:48:08.109Z,0.10
2017-12-09T08:50:35.525Z,-0.40
2017-12-09T08:53:02.929Z,-0.40
2017-12-09T08:55:30.341Z,-0.60
2017-12-09T08:57:58.527Z,-0.60
2017-12-09T09:00:26.701Z,-0.40
2017-12-09T09:02:54.889Z,-0.40
2017-12-09T09:05:22.300Z,-0.40
2017-12-09T09:07:49.717Z,-0.30
2017-12-09T09:10:17.120Z,-0.20
2017-12-09T09:12:44.526Z,0.20
2017-12-09T09:15:11.937Z,0.80
2017-12-09T09:17:40.121Z,1.60
2017-12-09T09:20:08.304Z,0.90
2017-12-09T09:22:36.473Z,0.80
2017-12-09T09:25:04.658Z,0.70
2017-12-09T09:27:33.052Z,0.60
2017-12-09T09:30:00.457Z,0.80
2017-12-09T09:32:27.877Z,0.90
2017-12-09T09:34:55.306Z,0.80
2017-12-09T09:37:22.672Z,0.60
2017-12-09T09:39:50.088Z,0.40
2017-12-09T09:42:17.491Z,0.40
2017-12-09T09:44:44.884Z,0.20
2017-12-09T09:47:12.306Z,-0.10
2017-12-09T09:49:39.717Z,-0.20
2017-12-09T09:52:07.892Z,-0.10
2017-12-09T09:54:36.074Z,-0.10
2017-12-09T09:57:04.261Z,-0.10
2017-12-09T09:59:31.669Z,-0.10
2017-12-09T10:01:59.969Z,0.00
2017-12-09T10:04:28.157Z,-0.10
2017-12-09T10:06:56.338Z,-0.10
2017-12-09T10:09:24.512Z,0.00
2017-12-09T10:11:51.920Z,0.00
2017-12-09T10:14:19.332Z,-0.10
2017-12-09T10:16:46.733Z,-0.10
2017-12-09T10:19:14.146Z,0.00
2017-12-09T10:21:41.550Z,-0.10
2017-12-09T10:24:08.973Z,-0.20
2017-12-09T10:26:36.372Z,-0.20
2017-12-09T10:29:03.790Z,-0.20
2017-12-09T10:31:31.447Z,-0.30
2017-12-09T10:33:59.147Z,-0.20
2017-12-09T10:36:26.561Z,-0.20
2017-12-09T10:38:53.973Z,-0.20
2017-12-09T10:41:22.142Z,0.00
2017-12-09T10:43:49.550Z,0.00
2017-12-09T10:46:16.958Z,0.00
2017-12-09T10:48:45.141Z,0.20
2017-12-09T10:51:13.316Z,0.10
2017-12-09T10:53:41.527Z,0.00
2017-12-09T10:56:09.353Z,0.00
2017-12-09T10:58:37.517Z,0.10
2017-12-09T11:01:04.922Z,0.10
2017-12-09T11:03:32.324Z,0.20
2017-12-09T11:05:59.736Z,0.10
2017-12-09T11:08:27.141Z,0.20
2017-12-09T11:10:54.548Z,0.30
2017-12-09T11:13:21.959Z,0.30
2017-12-09T11:15:50.133Z,0.30
2017-12-09T11:18:18.305Z,0.50
2017-12-09T11:20:45.717Z,0.40
2017-12-09T11:23:13.116Z,0.50
2017-12-09T11:25:40.526Z,0.40
2017-12-09T11:28:07.929Z,0.50
2017-12-09T11:30:36.121Z,0.60
2017-12-09T11:33:03.524Z,0.60
2017-12-09T11:35:30.924Z,0.80
2017-12-09T11:37:59.097Z,0.70
2017-12-09T11:40:27.280Z,0.60
2017-12-09T11:42:54.684Z,0.60
2017-12-09T11:45:22.090Z,0.50
2017-12-09T11:47:49.509Z,0.50
2017-12-09T11:50:16.948Z,0.60
2017-12-09T11:52:44.332Z,0.80
2017-12-09T11:55:11.734Z,0.70
2017-12-09T11:57:39.145Z,0.70
2017-12-09T12:00:06.551Z,0.70
2017-12-09T12:02:33.949Z,0.70
2017-12-09T12:05:01.369Z,0.70
2017-12-09T12:07:28.784Z,0.70
2017-12-09T12:09:56.963Z,0.80
2017-12-09T12:12:25.132Z,0.80
2017-12-09T12:14:53.308Z,0.80
2017-12-09T12:17:21.481Z,0.80
2017-12-09T12:19:49.658Z,1.00
2017-12-09T12:22:17.069Z,1.00
2017-12-09T12:24:44.477Z,1.10
2017-12-09T12:27:11.882Z,1.50
2017-12-09T12:29:39.302Z,1.60
2017-12-09T12:32:06.706Z,1.40
2017-12-09T12:34:34.109Z,1.30
2017-12-09T12:37:01.514Z,1.10
2017-12-09T12:39:28.928Z,0.90
2017-12-09T12:41:56.333Z,1.10
2017-12-09T12:44:23.814Z,1.40
2017-12-09T12:46:51.153Z,1.30
2017-12-09T12:49:18.585Z,1.20
2017-12-09T12:51:45.981Z,1.00
2017-12-09T12:54:13.385Z,0.90
2017-12-09T12:56:40.810Z,0.80
2017-12-09T12:59:08.205Z,0.70
2017-12-09T13:01:35.621Z,0.70
2017-12-09T13:04:03.029Z,0.70
2017-12-09T13:06:30.453Z,0.70
2017-12-09T13:08:57.869Z,0.60
2017-12-09T13:11:26.037Z,0.60
2017-12-09T13:13:54.210Z,0.60
2017-12-09T13:16:22.381Z,0.80
2017-12-09T13:18:50.561Z,0.70
2017-12-09T13:21:18.753Z,0.60
2017-12-09T13:23:46.158Z,0.60
2017-12-09T13:26:13.608Z,0.50
2017-12-09T13:28:41.012Z,0.60
2017-12-09T13:31:09.185Z,0.30
2017-12-09T13:33:36.599Z,0.30
2017-12-09T13:36:04.014Z,0.40
2017-12-09T13:38:31.418Z,0.30
2017-12-09T13:40:58.834Z,0.40
2017-12-09T13:43:26.236Z,0.40
2017-12-09T13:45:53.646Z,0.40
2017-12-09T13:48:21.050Z,0.40
2017-12-09T13:50:48.444Z,0.30
2017-12-09T13:53:15.864Z,0.10
2017-12-09T13:55:43.276Z,0.10
2017-12-09T13:58:10.673Z,0.10
2017-12-09T14:00:38.085Z,0.10
2017-12-09T14:03:05.501Z,0.10
2017-12-09T14:05:33.677Z,0.20
2017-12-09T14:08:01.890Z,0.10
2017-12-09T14:10:29.318Z,0.10
2017-12-09T14:12:56.674Z,0.10
2017-12-09T14:15:24.204Z,0.10
2017-12-09T14:17:51.613Z,0.20
2017-12-09T14:20:19.026Z,0.10
2017-12-09T14:22:47.209Z,0.10
2017-12-09T14:25:15.374Z,0.00
2017-12-09T14:27:43.544Z,-0.10
2017-12-09T14:30:11.730Z,-0.10
2017-12-09T14:32:39.897Z,0.00
2017-12-09T14:35:08.085Z,-0.10
2017-12-09T14:37:36.256Z,-0.10
2017-12-09T14:40:04.444Z,-0.20
2017-12-09T14:42:31.848Z,-0.20
2017-12-09T14:44:59.276Z,-0.10
2017-12-09T14:47:26.672Z,-0.10
2017-12-09T14:49:54.086Z,-0.10
2017-12-09T14:52:21.496Z,-0.30
2017-12-09T14:54:49.691Z,-0.30
2017-12-09T14:57:17.093Z,-0.30
2017-12-09T14:59:44.509Z,-0.30
2017-12-09T15:02:11.925Z,-0.40
2017-12-09T15:04:39.337Z,-0.40
2017-12-09T15:07:06.753Z,-0.50
2017-12-09T15:09:34.924Z,-0.60
2017-12-09T15:12:03.104Z,-0.60
2017-12-09T15:14:31.269Z,-0.60
2017-12-09T15:16:59.449Z,-0.50
2017-12-09T15:19:27.629Z,-0.40
2017-12-09T15:21:55.813Z,-0.40
2017-12-09T15:24:23.489Z,-0.40
2017-12-09T15:26:50.909Z,-0.40
2017-12-09T15:29:19.077Z,-0.40
2017-12-09T15:31:46.485Z,-0.40
2017-12-09T15:34:13.898Z,-0.30
2017-12-09T15:36:42.084Z,-0.20
2017-12-09T15:39:21.956Z,-0.30
2017-12-09T15:41:49.385Z,-0.30
2017-12-09T15:44:17.561Z,-0.30
2017-12-09T15:46:45.733Z,-0.30
2017-12-09T15:49:13.916Z,-0.20
2017-12-09T15:51:41.316Z,-0.20
2017-12-09T15:54:08.724Z,-0.20
2017-12-09T15:56:36.134Z,-0.20
2017-12-09T15:59:03.553Z,-0.20
2017-12-09T16:01:30.962Z,-0.20
2017-12-09T16:03:58.384Z,-0.20
2017-12-09T16:06:25.801Z,-0.20
2017-12-09T16:08:53.980Z,-0.30
2017-12-09T16:11:21.384Z,-0.30
2017-12-09T16:13:48.795Z,-0.40
2017-12-09T16:16:16.201Z,-0.30
2017-12-09T16:18:43.608Z,-0.30
2017-12-09T16:21:11.020Z,-0.30
2017-12-09T16:23:38.428Z,-0.20
2017-12-09T16:26:05.847Z,-0.20
2017-12-09T16:28:33.249Z,-0.30
2017-12-09T16:31:00.665Z,-0.20
2017-12-09T16:33:28.841Z,-0.30
2017-12-09T16:35:57.021Z,-0.30
2017-12-09T16:38:25.201Z,-0.40
2017-12-09T16:40:52.618Z,-0.40
2017-12-09T16:43:20.029Z,-0.50
2017-12-09T16:45:47.437Z,-0.50
2017-12-09T16:48:14.841Z,-0.60
2017-12-09T16:50:42.253Z,-0.60
2017-12-09T16:53:09.670Z,-0.70
2017-12-09T16:55:37.094Z,-0.80
2017-12-09T16:58:04.500Z,-0.80
2017-12-09T17:00:31.904Z,-0.80
2017-12-09T17:02:59.304Z,-0.80
2017-12-09T17:05:26.717Z,-0.80
2017-12-09T17:07:54.124Z,-0.80
2017-12-09T17:10:22.302Z,-0.80
2017-12-09T17:12:49.712Z,-0.80
2017-12-09T17:15:17.137Z,-0.80
2017-12-09T17:17:44.544Z,-0.70
2017-12-09T17:20:11.952Z,-0.70
2017-12-09T17:22:40.121Z,-0.60
2017-12-09T17:25:08.319Z,-0.60
2017-12-09T17:27:36.495Z,-0.60
2017-12-09T17:30:03.897Z,-0.60
2017-12-09T17:32:31.308Z,-0.50
2017-12-09T17:34:58.731Z,-0.40
2017-12-09T17:37:26.134Z,-0.50
2017-12-09T17:39:53.544Z,-0.40
2017-12-09T17:42:21.722Z,-0.40
2017-12-09T17:44:49.913Z,-0.40
2017-12-09T17:47:18.080Z,-0.30
2017-12-09T17:49:46.262Z,-0.20
2017-12-09T17:52:14.436Z,-0.30
2017-12-09T17:54:41.844Z,-0.30
2017-12-09T17:57:09.260Z,-0.40
2017-12-09T17:59:36.668Z,-0.40
2017-12-09T18:02:04.775Z,-0.50
2017-12-09T18:04:33.310Z,-0.70
2017-12-09T18:07:00.721Z,-0.80
2017-12-09T18:09:28.129Z,-0.80
2017-12-09T18:11:55.537Z,-0.80
2017-12-09T18:14:22.949Z,-0.90
2017-12-09T18:16:50.363Z,-0.90
2017-12-09T18:19:17.830Z,-0.90
2017-12-09T18:21:45.244Z,-0.90
2017-12-09T18:24:13.421Z,-1.00
2017-12-09T18:26:40.833Z,-1.00
2017-12-09T18:29:08.245Z,-1.00
2017-12-09T18:31:35.657Z,-1.10
2017-12-09T18:34:03.076Z,-1.10
2017-12-09T18:36:30.481Z,-1.00
2017-12-09T18:38:57.897Z,-1.00
2017-12-09T18:41:25.301Z,-1.00
2017-12-09T18:43:53.481Z,-1.00
2017-12-09T18:46:21.660Z,-0.90
2017-12-09T18:48:49.840Z,-0.90
2017-12-09T18:51:17.253Z,-1.00
2017-12-09T18:53:44.675Z,-1.00
2017-12-09T18:56:12.089Z,-0.90
2017-12-09T18:58:40.281Z,-0.90
2017-12-09T19:01:07.682Z,-0.90
2017-12-09T19:03:35.092Z,-0.90
2017-12-09T19:06:02.505Z,-0.80
2017-12-09T19:08:29.918Z,-0.90
2017-12-09T19:10:57.338Z,-0.80
2017-12-09T19:13:24.739Z,-0.80
2017-12-09T19:15:52.153Z,-0.70
2017-12-09T19:18:20.330Z,-0.70
2017-12-09T19:20:48.516Z,-0.70
2017-12-09T19:23:15.925Z,-0.70
2017-12-09T19:25:43.336Z,-0.60
2017-12-09T19:28:10.756Z,-0.60
2017-12-09T19:30:38.165Z,-0.60
2017-12-09T19:33:05.570Z,-0.50
2017-12-09T19:35:32.980Z,-0.50
2017-12-09T19:38:00.385Z,-0.60
2017-12-09T19:40:28.556Z,-0.50
2017-12-09T19:42:55.969Z,-0.50
2017-12-09T19:45:23.377Z,-0.50
2017-12-09T19:47:51.561Z,-0.60
2017-12-09T19:50:19.732Z,-0.60
2017-12-09T19:52:47.917Z,-0.60
2017-12-09T19:55:15.317Z,-0.60
2017-12-09T19:57:42.737Z,-0.60
2017-12-09T20:00:10.141Z,-0.60
2017-12-09T20:02:37.560Z,-0.60
2017-12-09T20:05:04.968Z,-0.70
2017-12-09T20:07:32.386Z,-0.60
2017-12-09T20:09:59.784Z,-0.70
2017-12-09T20:12:27.952Z,-0.70
2017-12-09T20:14:55.380Z,-0.70
2017-12-09T20:17:22.777Z,-0.70
2017-12-09T20:19:50.956Z,-0.70
2017-12-09T20:22:19.149Z,-0.80
2017-12-09T20:24:46.549Z,-0.80
2017-12-09T20:27:13.981Z,-0.70
2017-12-09T20:29:41.392Z,-0.70
2017-12-09T20:32:09.578Z,-0.70
2017-12-09T20:34:37.761Z,-0.70
2017-12-09T20:37:05.157Z,-0.80
2017-12-09T20:39:32.569Z,-0.70
2017-12-09T20:41:59.981Z,-0.60
2017-12-09T20:44:27.399Z,-0.70
2017-12-09T20:46:54.813Z,-0.70
2017-12-09T20:49:22.228Z,-0.60
2017-12-09T20:51:49.636Z,-0.50
2017-12-09T20:54:17.857Z,-0.50
2017-12-09T20:56:45.257Z,-0.50
2017-12-09T20:59:13.436Z,-0.40
2017-12-09T21:01:41.626Z,-0.40
2017-12-09T21:04:09.025Z,-0.40
2017-12-09T21:06:36.445Z,-0.40
2017-12-09T21:09:03.854Z,-0.40
2017-12-09T21:11:31.273Z,-0.50
2017-12-09T21:13:58.678Z,-0.50
2017-12-09T21:16:26.085Z,-0.40
2017-12-09T21:18:53.492Z,-0.40
2017-12-09T21:21:21.669Z,-0.40
2017-12-09T21:23:49.836Z,-0.40
2017-12-09T21:26:17.249Z,-0.40
2017-12-09T21:28:44.664Z,-0.30
2017-12-09T21:31:12.841Z,-0.30
2017-12-09T21:33:41.022Z,-0.30
2017-12-09T21:36:08.437Z,-0.30
2017-12-09T21:38:35.845Z,-0.30
2017-12-09T21:41:04.258Z,-0.30
2017-12-09T21:43:32.480Z,-0.40
2017-12-09T21:46:00.658Z,-0.40
2017-12-09T21:48:28.836Z,-0.40
2017-12-09T21:50:56.236Z,-0.40
2017-12-09T21:53:23.656Z,-0.40
2017-12-09T21:55:51.053Z,-0.40
2017-12-09T21:58:19.236Z,-0.60
2017-12-09T22:00:46.658Z,-0.60
2017-12-09T22:03:14.067Z,-0.60
2017-12-09T22:05:41.483Z,-0.60
2017-12-09T22:08:08.881Z,-0.60
2017-12-09T22:10:37.057Z,-0.60
2017-12-09T22:13:05.237Z,-0.60
2017-12-09T22:15:33.412Z,-0.70
2017-12-09T22:18:01.603Z,-0.60
2017-12-09T22:20:29.008Z,-0.60
2017-12-09T22:22:56.428Z,-0.60
2017-12-09T22:25:23.832Z,-0.60
2017-12-09T22:27:51.239Z,-0.60
2017-12-09T22:30:18.655Z,-0.60
2017-12-09T22:32:46.054Z,-0.60
2017-12-09T22:35:13.479Z,-0.50
2017-12-09T22:37:41.654Z,-0.50
2017-12-09T22:40:09.831Z,-0.60
2017-12-09T22:42:37.267Z,-0.60
2017-12-09T22:45:04.678Z,-0.60
2017-12-09T22:47:32.101Z,-0.60
2017-12-09T22:49:59.509Z,-0.50
2017-12-09T22:52:26.921Z,-0.50
2017-12-09T22:54:54.334Z,-0.60
2017-12-09T22:57:21.753Z,-0.60
2017-12-09T22:59:49.160Z,-0.50
2017-12-09T23:02:17.341Z,-0.50
2017-12-09T23:04:45.544Z,-0.60
2017-12-09T23:07:12.945Z,-0.60
2017-12-09T23:09:40.365Z,-0.60
2017-12-09T23:12:07.773Z,-0.70
2017-12-09T23:14:35.169Z,-0.70
2017-12-09T23:17:02.585Z,-0.70
2017-12-09T23:19:30.760Z,-0.60
2017-12-09T23:21:58.184Z,-0.60
2017-12-09T23:24:25.585Z,-0.60
2017-12-09T23:26:53.773Z,-0.60
2017-12-09T23:29:21.168Z,-0.60
2017-12-09T23:31:48.584Z,-0.60
2017-12-09T23:34:15.989Z,-0.50
2017-12-09T23:36:43.411Z,-0.50
2017-12-09T23:39:10.816Z,-0.50
2017-12-09T23:41:38.231Z,-0.50
2017-12-09T23:44:05.648Z,-0.50
2017-12-09T23:46:33.825Z,-0.50
2017-12-09T23:49:02.001Z,-0.60
2017-12-09T23:51:30.189Z,-0.60
2017-12-09T23:53:57.597Z,-0.60
2017-12-09T23:56:25.001Z,-0.60
2017-12-09T23:58:52.417Z,-0.60
